Observation data for Northfield on 10/17/2020      Previous  Date  Next       Current Mesonet Observations  Soil Data  Daily Summary Page  Observations in Plain Language
KNOR 170500Z 17012KT 12/M04 A3011 RMK A01 T01221035  RH  033%=      5-min Rain = 0
KNOR 170505Z 17012KT 12/M04 A3011 RMK A01 T01231035  RH  033%=      5-min Rain = 0
KNOR 170510Z 17012KT 12/M03 A301 RMK A01 T01231034  RH  033%=      5-min Rain = 0
KNOR 170515Z 17011G16KT 12/M03 A301 RMK A01 T01221034  RH  034%=      5-min Rain = 0
KNOR 170520Z 17012KT 12/M03 A301 RMK A01 T01231033  RH  034%=      5-min Rain = 0
KNOR 170525Z 17010KT 12/M03 A301 RMK A01 T01211033  RH  034%=      5-min Rain = 0
KNOR 170530Z 17011KT 12/M03 A301 RMK A01 T01211033  RH  034%=      5-min Rain = 0
KNOR 170535Z 17012KT 12/M03 A3009 RMK A01 T01211032  RH  034%=      5-min Rain = 0
KNOR 170540Z 17011KT 12/M03 A3009 RMK A01 T01201032  RH  035%=      5-min Rain = 0
KNOR 170545Z 18012KT 12/M03 A3009 RMK A01 T01201032  RH  034%=      5-min Rain = 0
KNOR 170550Z 18013KT 12/M03 A3008 RMK A01 T01211033  RH  034%=      5-min Rain = 0
KNOR 170555Z 17012KT 12/M03 A3008 RMK A01 T01231033  RH  034%=      5-min Rain = 0
KNOR 170600Z 18013KT 12/M03 A3008 RMK A01 T01241032  RH  034%=      5-min Rain = 0
KNOR 170605Z 17012KT 13/M03 A3008 RMK A01 T01251033  RH  033%=      5-min Rain = 0
KNOR 170610Z 17011KT 13/M03 A3008 RMK A01 T01251032  RH  033%=      5-min Rain = 0
KNOR 170615Z 17011KT 13/M03 A3008 RMK A01 T01251032  RH  034%=      5-min Rain = 0
KNOR 170620Z 17011G16KT 13/M03 A3008 RMK A01 T01261032  RH  033%=      5-min Rain = 0
KNOR 170625Z 18011KT 13/M03 A3007 RMK A01 T01251032  RH  033%=      5-min Rain = 0
KNOR 170630Z 18012G17KT 13/M03 A3007 RMK A01 T01251032  RH  033%=      5-min Rain = 0
KNOR 170635Z 18011KT 12/M03 A3007 RMK A01 T01241032  RH  034%=      5-min Rain = 0
KNOR 170640Z 18011KT 12/M03 A3007 RMK A01 T01231032  RH  034%=      5-min Rain = 0
KNOR 170645Z 18011KT 12/M03 A3006 RMK A01 T01221032  RH  034%=      5-min Rain = 0
KNOR 170650Z 18010KT 12/M03 A3006 RMK A01 T01211032  RH  034%=      5-min Rain = 0
KNOR 170655Z 18010KT 12/M03 A3006 RMK A01 T01201032  RH  035%=      5-min Rain = 0
KNOR 170700Z 17008KT 12/M03 A3006 RMK A01 T01181032  RH  035%=      5-min Rain = 0
KNOR 170705Z 17008KT 12/M03 A3006 RMK A01 T01161032  RH  035%=      5-min Rain = 0
KNOR 170710Z 18008KT 11/M03 A3006 RMK A01 T01141032  RH  036%=      5-min Rain = 0
KNOR 170715Z 18009KT 11/M03 A3006 RMK A01 T01121032  RH  036%=      5-min Rain = 0
KNOR 170720Z 18009KT 11/M03 A3006 RMK A01 T01111032  RH  037%=      5-min Rain = 0
KNOR 170725Z 17008KT 11/M03 A3006 RMK A01 T01091032  RH  037%=      5-min Rain = 0
KNOR 170730Z 17008KT 11/M03 A3005 RMK A01 T01081032  RH  038%=      5-min Rain = 0
KNOR 170735Z 17008KT 11/M03 A3005 RMK A01 T01061032  RH  038%=      5-min Rain = 0
KNOR 170740Z 16009KT 10/M03 A3005 RMK A01 T01021032  RH  039%=      5-min Rain = 0
KNOR 170745Z 16009KT 10/M03 A3005 RMK A01 T01041032  RH  039%=      5-min Rain = 0
KNOR 170750Z 16008KT 11/M03 A3005 RMK A01 T01061032  RH  038%=      5-min Rain = 0
KNOR 170755Z 16008KT 11/M03 A3005 RMK A01 T01091031  RH  037%=      5-min Rain = 0
KNOR 170800Z 16009KT 11/M03 A3004 RMK A01 T01111031  RH  037%=      5-min Rain = 0
KNOR 170805Z 17010KT 11/M03 A3004 RMK A01 T01121031  RH  037%=      5-min Rain = 0
KNOR 170810Z 17011G16KT 12/M03 A3004 RMK A01 T01151030  RH  036%=      5-min Rain = 0
KNOR 170815Z 17011KT 12/M03 A3004 RMK A01 T01181030  RH  036%=      5-min Rain = 0
KNOR 170820Z 17011KT 12/M03 A3004 RMK A01 T01201031  RH  035%=      5-min Rain = 0
KNOR 170825Z 17011G16KT 12/M03 A3004 RMK A01 T01201031  RH  035%=      5-min Rain = 0
KNOR 170830Z 17012G18KT 12/M03 A3004 RMK A01 T01221031  RH  035%=      5-min Rain = 0
KNOR 170835Z 17012KT 12/M03 A3003 RMK A01 T01221031  RH  035%=      5-min Rain = 0
KNOR 170840Z 17012KT 12/M03 A3003 RMK A01 T01221031  RH  035%=      5-min Rain = 0
KNOR 170845Z 17012KT 12/M03 A3003 RMK A01 T01211031  RH  035%=      5-min Rain = 0
KNOR 170850Z 17012KT 12/M03 A3003 RMK A01 T01201031  RH  035%=      5-min Rain = 0
KNOR 170855Z 17013G18KT 12/M03 A3002 RMK A01 T01211030  RH  035%=      5-min Rain = 0
KNOR 170900Z 17015KT 12/M03 A3002 RMK A01 T01231030  RH  035%=      5-min Rain = 0
KNOR 170905Z 17014G20KT 12/M03 A3001 RMK A01 T01231030  RH  034%=      5-min Rain = 0
KNOR 170910Z 17015G20KT 13/M03 A3001 RMK A01 T01251030  RH  034%=      5-min Rain = 0
KNOR 170915Z 18015G20KT 13/M03 A3001 RMK A01 T01261029  RH  034%=      5-min Rain = 0
KNOR 170920Z 18015KT 13/M03 A30 RMK A01 T01251029  RH  034%=      5-min Rain = 0
KNOR 170925Z 17014G21KT 13/M03 A30 RMK A01 T01261029  RH  034%=      5-min Rain = 0
KNOR 170930Z 18015G21KT 13/M03 A30 RMK A01 T01271029  RH  034%=      5-min Rain = 0
KNOR 170935Z 17014G19KT 13/M03 A30 RMK A01 T01261029  RH  034%=      5-min Rain = 0
KNOR 170940Z 17014G20KT 13/M03 A30 RMK A01 T01251029  RH  034%=      5-min Rain = 0
KNOR 170945Z 18014G19KT 13/M03 A2999 RMK A01 T01251029  RH  034%=      5-min Rain = 0
KNOR 170950Z 18015KT 13/M03 A2999 RMK A01 T01261029  RH  034%=      5-min Rain = 0
KNOR 170955Z 18014G19KT 13/M03 A2999 RMK A01 T01251029  RH  034%=      5-min Rain = 0
KNOR 171000Z 18014G20KT 13/M03 A2999 RMK A01 T01251029  RH  034%=      5-min Rain = 0
KNOR 171005Z 18013G18KT 12/M03 A2998 RMK A01 T01241029  RH  035%=      5-min Rain = 0
KNOR 171010Z 18014G19KT 13/M03 A2998 RMK A01 T01251028  RH  034%=      5-min Rain = 0
KNOR 171015Z 18013G18KT 13/M03 A2999 RMK A01 T01261028  RH  034%=      5-min Rain = 0
KNOR 171020Z 19013G18KT 13/M03 A2999 RMK A01 T01251028  RH  035%=      5-min Rain = 0
KNOR 171025Z 19013G19KT 13/M03 A2999 RMK A01 T01261028  RH  034%=      5-min Rain = 0
KNOR 171030Z 18013G18KT 13/M03 A2999 RMK A01 T01261028  RH  035%=      5-min Rain = 0
KNOR 171035Z 18012KT 12/M03 A2999 RMK A01 T01231028  RH  035%=      5-min Rain = 0
KNOR 171040Z 18013KT 12/M03 A2999 RMK A01 T01231028  RH  035%=      5-min Rain = 0
KNOR 171045Z 17012KT 12/M03 A2999 RMK A01 T01211028  RH  036%=      5-min Rain = 0
KNOR 171050Z 17012KT 12/M03 A2999 RMK A01 T01191027  RH  036%=      5-min Rain = 0
KNOR 171055Z 16010KT 12/M03 A2999 RMK A01 T01171027  RH  037%=      5-min Rain = 0
KNOR 171100Z 16010KT 12/M03 A2999 RMK A01 T01151027  RH  037%=      5-min Rain = 0
KNOR 171105Z 15009KT 11/M03 A30 RMK A01 T01131027  RH  038%=      5-min Rain = 0
KNOR 171110Z 14008KT 11/M03 A30 RMK A01 T01111027  RH  038%=      5-min Rain = 0
KNOR 171115Z 14008KT 11/M03 A30 RMK A01 T01101027  RH  039%=      5-min Rain = 0
KNOR 171120Z 13007KT 11/M03 A30 RMK A01 T01091027  RH  039%=      5-min Rain = 0
KNOR 171125Z 12006KT 11/M03 A30 RMK A01 T01081026  RH  039%=      5-min Rain = 0
KNOR 171130Z 12007KT 11/M03 A30 RMK A01 T01071026  RH  039%=      5-min Rain = 0
KNOR 171135Z 12007KT 11/M03 A30 RMK A01 T01051026  RH  040%=      5-min Rain = 0
KNOR 171140Z 12006KT 11/M03 A30 RMK A01 T01051026  RH  040%=      5-min Rain = 0
KNOR 171145Z 12006KT 10/M03 A30 RMK A01 T01031026  RH  041%=      5-min Rain = 0
KNOR 171150Z 12005KT 10/M03 A30 RMK A01 T01001026  RH  041%=      5-min Rain = 0
KNOR 171155Z 12006KT 10/M03 A30 RMK A01 T00981025  RH  042%=      5-min Rain = 0
KNOR 171200Z 11005KT 10/M03 A30 RMK A01 T00981025  RH  042%=      5-min Rain = 0
KNOR 171205Z 12005KT 10/M03 A30 RMK A01 T00981025  RH  042%=      5-min Rain = 0
KNOR 171210Z 12006KT 10/M02 A30 RMK A01 T00971024  RH  043%=      5-min Rain = 0
KNOR 171215Z 13005KT 10/M02 A2999 RMK A01 T00961024  RH  043%=      5-min Rain = 0
KNOR 171220Z 12006KT 10/M02 A2999 RMK A01 T00951024  RH  043%=      5-min Rain = 0
KNOR 171225Z 13006KT 10/M02 A2999 RMK A01 T00951023  RH  044%=      5-min Rain = 0
KNOR 171230Z 15006KT 10/M02 A2999 RMK A01 T00991021  RH  043%=      5-min Rain = 0
KNOR 171235Z 17008KT 10/M02 A2998 RMK A01 T01041018  RH  043%=      5-min Rain = 0
KNOR 171240Z 17009KT 11/M02 A2998 RMK A01 T01101017  RH  041%=      5-min Rain = 0
KNOR 171245Z 17008KT 11/M02 A2998 RMK A01 T01121015  RH  041%=      5-min Rain = 0
KNOR 171250Z 18009KT 11/M01 A2998 RMK A01 T01131014  RH  042%=      5-min Rain = 0
KNOR 171255Z 17008KT 12/M01 A2998 RMK A01 T01151012  RH  042%=      5-min Rain = 0
KNOR 171300Z 16007G12KT 11/M01 A2998 RMK A01 T01121013  RH  042%=      5-min Rain = 0
KNOR 171305Z 15006KT 10/M02 A2998 RMK A01 T00991020  RH  044%=      5-min Rain = 0
KNOR 171310Z 17007KT 09/M02 A2997 RMK A01 T00941019  RH  046%=      5-min Rain = 0
KNOR 171315Z 18009KT 11/M01 A2997 RMK A01 T01101007  RH  045%=      5-min Rain = 0
KNOR 171320Z 18010KT 12/M01 A2997 RMK A01 T01161008  RH  043%=      5-min Rain = 0
KNOR 171325Z 18010KT 12/M01 A2997 RMK A01 T01161008  RH  043%=      5-min Rain = 0
KNOR 171330Z 18010KT 12/M01 A2997 RMK A01 T01171007  RH  043%=      5-min Rain = 0
KNOR 171335Z 18011KT 12/M01 A2997 RMK A01 T01201005  RH  042%=      5-min Rain = 0
KNOR 171340Z 18013KT 12/M00 A2997 RMK A01 T01221004  RH  042%=      5-min Rain = 0
KNOR 171345Z 19012KT 13/M00 A2997 RMK A01 T01251003  RH  042%=      5-min Rain = 0
KNOR 171350Z 19012G19KT 13/M00 A2997 RMK A01 T01281002  RH  041%=      5-min Rain = 0
KNOR 171355Z 19011KT 13/M00 A2997 RMK A01 T01301001  RH  041%=      5-min Rain = 0
KNOR 171400Z 19011G16KT 13/00 A2997 RMK A01 T013200-0  RH  041%=      5-min Rain = 0
KNOR 171405Z 19011KT 14/00 A2997 RMK A01 T01350001  RH  040%=      5-min Rain = 0
KNOR 171410Z 19010G16KT 14/00 A2997 RMK A01 T01380002  RH  040%=      5-min Rain = 0
KNOR 171415Z 19010G16KT 14/00 A2997 RMK A01 T01400003  RH  040%=      5-min Rain = 0
KNOR 171420Z 19011G16KT 14/01 A2997 RMK A01 T01410005  RH  040%=      5-min Rain = 0
KNOR 171425Z 19012G17KT 14/01 A2997 RMK A01 T01440007  RH  040%=      5-min Rain = 0
KNOR 171430Z 20014G19KT 15/01 A2998 RMK A01 T01450008  RH  040%=      5-min Rain = 0
KNOR 171435Z 20015KT 15/01 A2997 RMK A01 T01470010  RH  040%=      5-min Rain = 0
KNOR 171440Z 20014G19KT 15/01 A2997 RMK A01 T01490011  RH  040%=      5-min Rain = 0
KNOR 171445Z 20015KT 15/01 A2997 RMK A01 T01530013  RH  039%=      5-min Rain = 0
KNOR 171450Z 20015G20KT 16/02 A2997 RMK A01 T01550015  RH  039%=      5-min Rain = 0
KNOR 171455Z 20015KT 16/02 A2996 RMK A01 T01590016  RH  039%=      5-min Rain = 0
KNOR 171500Z 20014G19KT 16/02 A2996 RMK A01 T01630017  RH  038%=      5-min Rain = 0
KNOR 171505Z 20013G20KT 17/02 A2996 RMK A01 T01660019  RH  038%=      5-min Rain = 0
KNOR 171510Z 20014KT 17/02 A2996 RMK A01 T01680019  RH  037%=      5-min Rain = 0
KNOR 171515Z 20014KT 17/02 A2996 RMK A01 T01690019  RH  037%=      5-min Rain = 0
KNOR 171520Z 20013KT 17/02 A2996 RMK A01 T01720019  RH  036%=      5-min Rain = 0
KNOR 171525Z 19012G18KT 17/02 A2996 RMK A01 T01730019  RH  036%=      5-min Rain = 0
KNOR 171530Z 20010G15KT 18/02 A2996 RMK A01 T01780020  RH  035%=      5-min Rain = 0
KNOR 171535Z 20013G19KT 18/02 A2995 RMK A01 T01790020  RH  035%=      5-min Rain = 0
KNOR 171540Z 20011KT 18/02 A2995 RMK A01 T01830021  RH  034%=      5-min Rain = 0
KNOR 171545Z 19012KT 19/02 A2996 RMK A01 T01870021  RH  033%=      5-min Rain = 0
KNOR 171550Z 19010KT 19/02 A2995 RMK A01 T01900023  RH  033%=      5-min Rain = 0
KNOR 171555Z 20007KT 20/03 A2995 RMK A01 T01980025  RH  032%=      5-min Rain = 0
KNOR 171600Z 21011G17KT 21/03 A2995 RMK A01 T02120030  RH  031%=      5-min Rain = 0
KNOR 171605Z 21013KT 21/03 A2995 RMK A01 T02140030  RH  030%=      5-min Rain = 0
KNOR 171610Z 20013G18KT 22/03 A2995 RMK A01 T02150030  RH  030%=      5-min Rain = 0
KNOR 171615Z 20012G18KT 22/03 A2994 RMK A01 T02200030  RH  029%=      5-min Rain = 0
KNOR 171620Z 20013KT 22/03 A2994 RMK A01 T02210030  RH  029%=      5-min Rain = 0
KNOR 171625Z 20015G21KT 22/03 A2993 RMK A01 T02220030  RH  029%=      5-min Rain = 0
KNOR 171630Z 21015KT 23/03 A2992 RMK A01 T02270030  RH  028%=      5-min Rain = 0
KNOR 171635Z 21015KT 23/03 A2992 RMK A01 T02300030  RH  028%=      5-min Rain = 0
KNOR 171640Z 21013G18KT 23/03 A2992 RMK A01 T02320031  RH  027%=      5-min Rain = 0
KNOR 171645Z 20014G19KT 24/03 A2992 RMK A01 T02410031  RH  026%=      5-min Rain = 0
KNOR 171650Z 20013KT 24/03 A2992 RMK A01 T02420030  RH  026%=      5-min Rain = 0
KNOR 171655Z 20013G18KT 24/03 A2992 RMK A01 T02440031  RH  025%=      5-min Rain = 0
KNOR 171700Z 19012G18KT 25/03 A2991 RMK A01 T02490031  RH  025%=      5-min Rain = 0
KNOR 171705Z 21014G21KT 25/03 A2991 RMK A01 T02540027  RH  023%=      5-min Rain = 0
KNOR 171710Z 21014G19KT 26/03 A299 RMK A01 T02580026  RH  022%=      5-min Rain = 0
KNOR 171715Z 21016G22KT 26/02 A299 RMK A01 T02600024  RH  022%=      5-min Rain = 0
KNOR 171720Z 21015G20KT 27/02 A299 RMK A01 T02670023  RH  021%=      5-min Rain = 0
KNOR 171725Z 22016G21KT 27/02 A299 RMK A01 T02670020  RH  020%=      5-min Rain = 0
KNOR 171730Z 21017G24KT 27/02 A2989 RMK A01 T02700019  RH  020%=      5-min Rain = 0
KNOR 171735Z 22017G25KT 27/02 A2989 RMK A01 T02720019  RH  020%=      5-min Rain = 0
KNOR 171740Z 23014G19KT 27/02 A2989 RMK A01 T02740017  RH  019%=      5-min Rain = 0
KNOR 171745Z 23015G20KT 28/01 A2989 RMK A01 T02790014  RH  018%=      5-min Rain = 0
KNOR 171750Z 23013KT 28/01 A2989 RMK A01 T02810013  RH  018%=      5-min Rain = 0
KNOR 171755Z 23015KT 28/01 A2988 RMK A01 T02830010  RH  017%=      5-min Rain = 0
KNOR 171800Z 24014G20KT 28/01 A2988 RMK A01 T02820009  RH  017%=      5-min Rain = 0
KNOR 171805Z 23015G21KT 29/01 A2988 RMK A01 T02870008  RH  017%=      5-min Rain = 0
KNOR 171810Z 23014G20KT 29/01 A2987 RMK A01 T02870008  RH  017%=      5-min Rain = 0
KNOR 171815Z 22014G19KT 29/01 A2987 RMK A01 T02890007  RH  016%=      5-min Rain = 0
KNOR 171820Z 23014G20KT 29/01 A2987 RMK A01 T02930007  RH  016%=      5-min Rain = 0
KNOR 171825Z 23012G19KT 30/01 A2986 RMK A01 T02950006  RH  016%=      5-min Rain = 0
KNOR 171830Z 24013G20KT 30/01 A2986 RMK A01 T02960006  RH  016%=      5-min Rain = 0
KNOR 171835Z 22015G24KT 30/00 A2985 RMK A01 T02990004  RH  015%=      5-min Rain = 0
KNOR 171840Z 22013G20KT 30/00 A2985 RMK A01 T03000004  RH  015%=      5-min Rain = 0
KNOR 171845Z 23016G24KT 30/M00 A2984 RMK A01 T03031001  RH  014%=      5-min Rain = 0
KNOR 171850Z 22014KT 31/00 A2984 RMK A01 T030600-0  RH  014%=      5-min Rain = 0
KNOR 171855Z 22014G20KT 31/M00 A2984 RMK A01 T03071002  RH  014%=      5-min Rain = 0
KNOR 171900Z 23015G20KT 31/M00 A2984 RMK A01 T03091004  RH  013%=      5-min Rain = 0
KNOR 171905Z 23015KT 31/M01 A2983 RMK A01 T03061005  RH  014%=      5-min Rain = 0
KNOR 171910Z 22015G21KT 31/M00 A2983 RMK A01 T03111004  RH  013%=      5-min Rain = 0
KNOR 171915Z 22015G20KT 31/M01 A2982 RMK A01 T03121007  RH  013%=      5-min Rain = 0
KNOR 171920Z 21012KT 32/M01 A2982 RMK A01 T03171005  RH  013%=      5-min Rain = 0
KNOR 171925Z 22016G22KT 32/M01 A2982 RMK A01 T03191008  RH  012%=      5-min Rain = 0
KNOR 171930Z 22013G19KT 32/M01 A2982 RMK A01 T03231011  RH  012%=      5-min Rain = 0
KNOR 171935Z 23014G19KT 32/M01 A2982 RMK A01 T03211012  RH  012%=      5-min Rain = 0
KNOR 171940Z 24012G18KT 32/M01 A2981 RMK A01 T03191012  RH  012%=      5-min Rain = 0
KNOR 171945Z 24011G16KT 32/M01 A2981 RMK A01 T03241012  RH  012%=      5-min Rain = 0
KNOR 171950Z 23014G23KT 33/M01 A2981 RMK A01 T03251013  RH  011%=      5-min Rain = 0
KNOR 171955Z 23010G17KT 32/M02 A2981 RMK A01 T03241015  RH  011%=      5-min Rain = 0
KNOR 172000Z 23012G18KT 33/M01 A298 RMK A01 T03271014  RH  011%=      5-min Rain = 0
KNOR 172005Z 23012G18KT 33/M01 A298 RMK A01 T03301014  RH  011%=      5-min Rain = 0
KNOR 172010Z 22010G16KT 33/M02 A298 RMK A01 T03311015  RH  011%=      5-min Rain = 0
KNOR 172015Z 23014G20KT 33/M02 A2979 RMK A01 T03291016  RH  011%=      5-min Rain = 0
KNOR 172020Z 22012KT 33/M02 A2979 RMK A01 T03341016  RH  011%=      5-min Rain = 0
KNOR 172025Z 23013KT 34/M02 A2979 RMK A01 T03371015  RH  011%=      5-min Rain = 0
KNOR 172030Z 23010G15KT 34/M02 A2979 RMK A01 T03391018  RH  010%=      5-min Rain = 0
KNOR 172035Z 23013KT 34/M02 A2978 RMK A01 T03421022  RH  010%=      5-min Rain = 0
KNOR 172040Z 24013G20KT 34/M03 A2978 RMK A01 T03401026  RH  010%=      5-min Rain = 0
KNOR 172045Z 24011G17KT 34/M03 A2978 RMK A01 T03381028  RH  009%=      5-min Rain = 0
KNOR 172050Z 22009KT 34/M02 A2978 RMK A01 T03401023  RH  010%=      5-min Rain = 0
KNOR 172055Z 23009KT 34/M02 A2978 RMK A01 T03431024  RH  010%=      5-min Rain = 0
KNOR 172100Z 24010G20KT 34/M03 A2977 RMK A01 T03421026  RH  009%=      5-min Rain = 0
KNOR 172105Z 21009G17KT 35/M03 A2977 RMK A01 T03451027  RH  009%=      5-min Rain = 0
KNOR 172110Z 23005KT 35/M03 A2977 RMK A01 T03461029  RH  009%=      5-min Rain = 0
KNOR 172115Z 25007KT 35/M03 A2977 RMK A01 T03451030  RH  009%=      5-min Rain = 0
KNOR 172120Z 21008G14KT 35/M03 A2977 RMK A01 T03501026  RH  009%=      5-min Rain = 0
KNOR 172125Z 20011G16KT 35/M02 A2976 RMK A01 T03461017  RH  010%=      5-min Rain = 0
KNOR 172130Z 21012G17KT 34/M02 A2976 RMK A01 T03431020  RH  010%=      5-min Rain = 0
KNOR 172135Z 19011KT 34/M02 A2976 RMK A01 T03421021  RH  010%=      5-min Rain = 0
KNOR 172140Z 20013KT 34/M02 A2976 RMK A01 T03411022  RH  010%=      5-min Rain = 0
KNOR 172145Z 20009G14KT 34/M02 A2976 RMK A01 T03421021  RH  010%=      5-min Rain = 0
KNOR 172150Z 18006G11KT 34/M02 A2975 RMK A01 T03431022  RH  010%=      5-min Rain = 0
KNOR 172155Z 22009KT 34/M03 A2975 RMK A01 T03431025  RH  009%=      5-min Rain = 0
KNOR 172200Z 20008KT 34/M03 A2975 RMK A01 T03441027  RH  009%=      5-min Rain = 0
KNOR 172205Z 19009KT 35/M03 A2975 RMK A01 T03461025  RH  009%=      5-min Rain = 0
KNOR 172210Z 20011G16KT 35/M02 A2974 RMK A01 T03461023  RH  009%=      5-min Rain = 0
KNOR 172215Z 19012G18KT 34/M02 A2974 RMK A01 T03441022  RH  010%=      5-min Rain = 0
KNOR 172220Z 19012G17KT 34/M01 A2973 RMK A01 T03421014  RH  010%=      5-min Rain = 0
KNOR 172225Z 17012KT 34/M01 A2973 RMK A01 T03391014  RH  011%=      5-min Rain = 0
KNOR 172230Z 20015G20KT 34/M02 A2973 RMK A01 T03391018  RH  010%=      5-min Rain = 0
KNOR 172235Z 19013G20KT 34/M02 A2973 RMK A01 T03381017  RH  010%=      5-min Rain = 0
KNOR 172240Z 18013G18KT 34/M01 A2973 RMK A01 T03371014  RH  011%=      5-min Rain = 0
KNOR 172245Z 19012G17KT 33/M01 A2973 RMK A01 T03341008  RH  011%=      5-min Rain = 0
KNOR 172250Z 18013G20KT 33/M00 A2973 RMK A01 T03311004  RH  012%=      5-min Rain = 0
KNOR 172255Z 19011KT 33/M00 A2973 RMK A01 T03281001  RH  012%=      5-min Rain = 0
KNOR 172300Z 18012G18KT 33/M00 A2973 RMK A01 T03261001  RH  012%=      5-min Rain = 0
KNOR 172305Z 19012G18KT 33/M00 A2972 RMK A01 T03251001  RH  013%=      5-min Rain = 0
KNOR 172310Z 18011G20KT 32/M00 A2972 RMK A01 T03231001  RH  013%=      5-min Rain = 0
KNOR 172315Z 18017G22KT 32/00 A2972 RMK A01 T03210001  RH  013%=      5-min Rain = 0
KNOR 172320Z 19014G20KT 32/00 A2972 RMK A01 T03200001  RH  013%=      5-min Rain = 0
KNOR 172325Z 18010G16KT 32/00 A2972 RMK A01 T03180001  RH  013%=      5-min Rain = 0
KNOR 172330Z 19010KT 32/00 A2972 RMK A01 T03170001  RH  013%=      5-min Rain = 0
KNOR 172335Z 18014G23KT 31/00 A2972 RMK A01 T03140004  RH  014%=      5-min Rain = 0
KNOR 172340Z 18015G20KT 31/01 A2972 RMK A01 T03110005  RH  014%=      5-min Rain = 0
KNOR 172345Z 18012G17KT 31/01 A2972 RMK A01 T03080005  RH  014%=      5-min Rain = 0
KNOR 172350Z 18012G17KT 31/01 A2972 RMK A01 T03050006  RH  015%=      5-min Rain = 0
KNOR 172355Z 19008G16KT 30/01 A2972 RMK A01 T03020008  RH  015%=      5-min Rain = 0
KNOR 180000Z 19012KT 30/02 A2972 RMK A01 T02990016  RH  017%=      5-min Rain = 0
KNOR 180005Z 19012G21KT 30/02 A2972 RMK A01 T02960019  RH  017%=      5-min Rain = 0
KNOR 180010Z 18013G18KT 30/02 A2972 RMK A01 T02950020  RH  017%=      5-min Rain = 0
KNOR 180015Z 18012KT 29/02 A2972 RMK A01 T02890021  RH  018%=      5-min Rain = 0
KNOR 180020Z 18012KT 29/02 A2972 RMK A01 T02860022  RH  019%=      5-min Rain = 0
KNOR 180025Z 18012G18KT 28/02 A2972 RMK A01 T02830023  RH  019%=      5-min Rain = 0
KNOR 180030Z 18012KT 28/02 A2972 RMK A01 T02820024  RH  019%=      5-min Rain = 0
KNOR 180035Z 18012KT 28/03 A2972 RMK A01 T02800026  RH  020%=      5-min Rain = 0
KNOR 180040Z 19012KT 28/03 A2972 RMK A01 T02770027  RH  020%=      5-min Rain = 0
KNOR 180045Z 18011KT 28/03 A2973 RMK A01 T02770028  RH  020%=      5-min Rain = 0
KNOR 180050Z 18010KT 27/03 A2973 RMK A01 T02730028  RH  021%=      5-min Rain = 0
KNOR 180055Z 18011KT 27/03 A2973 RMK A01 T02700029  RH  021%=      5-min Rain = 0
KNOR 180100Z 18011KT 27/03 A2973 RMK A01 T02700029  RH  022%=      5-min Rain = 0
KNOR 180105Z 18013KT 27/03 A2973 RMK A01 T02670030  RH  022%=      5-min Rain = 0
KNOR 180110Z 18013KT 27/03 A2973 RMK A01 T02670030  RH  022%=      5-min Rain = 0
KNOR 180115Z 18012KT 27/03 A2973 RMK A01 T02660030  RH  022%=      5-min Rain = 0
KNOR 180120Z 17012KT 26/03 A2973 RMK A01 T02630030  RH  023%=      5-min Rain = 0
KNOR 180125Z 18010KT 26/03 A2973 RMK A01 T02580030  RH  023%=      5-min Rain = 0
KNOR 180130Z 18010KT 26/03 A2973 RMK A01 T02550031  RH  024%=      5-min Rain = 0
KNOR 180135Z 18011KT 26/03 A2973 RMK A01 T02580031  RH  023%=      5-min Rain = 0
KNOR 180140Z 18011KT 26/03 A2973 RMK A01 T02570031  RH  023%=      5-min Rain = 0
KNOR 180145Z 18013KT 26/03 A2973 RMK A01 T02600032  RH  023%=      5-min Rain = 0
KNOR 180150Z 18014G19KT 26/03 A2972 RMK A01 T02600032  RH  023%=      5-min Rain = 0
KNOR 180155Z 18013KT 26/03 A2972 RMK A01 T02600033  RH  023%=      5-min Rain = 0
KNOR 180200Z 18013G18KT 26/03 A2973 RMK A01 T02580034  RH  024%=      5-min Rain = 0
KNOR 180205Z 18012G17KT 26/03 A2973 RMK A01 T02560034  RH  024%=      5-min Rain = 0
KNOR 180210Z 18013KT 26/03 A2973 RMK A01 T02550034  RH  024%=      5-min Rain = 0
KNOR 180215Z 18013KT 25/03 A2973 RMK A01 T02540034  RH  025%=      5-min Rain = 0
KNOR 180220Z 18012KT 25/03 A2973 RMK A01 T02530034  RH  025%=      5-min Rain = 0
KNOR 180225Z 18013KT 25/03 A2973 RMK A01 T02530034  RH  025%=      5-min Rain = 0
KNOR 180230Z 18012KT 25/04 A2973 RMK A01 T02520035  RH  025%=      5-min Rain = 0
KNOR 180235Z 19010G15KT 25/04 A2973 RMK A01 T02500035  RH  025%=      5-min Rain = 0
KNOR 180240Z 19010G15KT 25/04 A2973 RMK A01 T02470035  RH  026%=      5-min Rain = 0
KNOR 180245Z 19012G17KT 25/03 A2973 RMK A01 T02460034  RH  026%=      5-min Rain = 0
KNOR 180250Z 18012KT 25/03 A2974 RMK A01 T02460034  RH  026%=      5-min Rain = 0
KNOR 180255Z 18012KT 25/03 A2974 RMK A01 T02450033  RH  026%=      5-min Rain = 0
KNOR 180300Z 18013G21KT 25/03 A2974 RMK A01 T02450032  RH  026%=      5-min Rain = 0
KNOR 180305Z 18013KT 24/03 A2974 RMK A01 T02440032  RH  026%=      5-min Rain = 0
KNOR 180310Z 18012G17KT 24/03 A2974 RMK A01 T02400031  RH  026%=      5-min Rain = 0
KNOR 180315Z 18012KT 24/03 A2974 RMK A01 T02410031  RH  026%=      5-min Rain = 0
KNOR 180320Z 18011G16KT 24/03 A2975 RMK A01 T02390030  RH  026%=      5-min Rain = 0
KNOR 180325Z 19011KT 24/03 A2975 RMK A01 T02350030  RH  027%=      5-min Rain = 0
KNOR 180330Z 19011KT 23/03 A2975 RMK A01 T02340029  RH  027%=      5-min Rain = 0
KNOR 180335Z 20009KT 23/03 A2975 RMK A01 T02320028  RH  027%=      5-min Rain = 0
KNOR 180340Z 21008KT 23/03 A2975 RMK A01 T02280027  RH  027%=      5-min Rain = 0
KNOR 180345Z 20008KT 23/03 A2976 RMK A01 T02250025  RH  027%=      5-min Rain = 0
KNOR 180350Z 20009KT 22/02 A2976 RMK A01 T02240024  RH  027%=      5-min Rain = 0
KNOR 180355Z 20009KT 22/02 A2976 RMK A01 T02230023  RH  027%=      5-min Rain = 0
KNOR 180400Z 19010KT 22/02 A2976 RMK A01 T02220022  RH  027%=      5-min Rain = 0
KNOR 180405Z 19010KT 22/02 A2976 RMK A01 T02180021  RH  028%=      5-min Rain = 0
KNOR 180410Z 19009KT 22/02 A2976 RMK A01 T02170021  RH  028%=      5-min Rain = 0
KNOR 180415Z 19011KT 22/02 A2976 RMK A01 T02190020  RH  027%=      5-min Rain = 0
KNOR 180420Z 20011KT 22/02 A2976 RMK A01 T02190019  RH  027%=      5-min Rain = 0
KNOR 180425Z 20011KT 22/02 A2976 RMK A01 T02180017  RH  027%=      5-min Rain = 0
KNOR 180430Z 19011KT 22/02 A2976 RMK A01 T02190016  RH  026%=      5-min Rain = 0
KNOR 180435Z 19013KT 22/02 A2976 RMK A01 T02190015  RH  026%=      5-min Rain = 0
KNOR 180440Z 19015G20KT 22/01 A2976 RMK A01 T02220013  RH  025%=      5-min Rain = 0
KNOR 180445Z 20014KT 23/01 A2976 RMK A01 T02250011  RH  025%=      5-min Rain = 0
KNOR 180450Z 21013KT 22/01 A2976 RMK A01 T02230012  RH  025%=      5-min Rain = 0
KNOR 180455Z 20014KT 22/01 A2976 RMK A01 T02220013  RH  026%=      5-min Rain = 0

Page generated in 0.0093 seconds.